createdAt,value
2023-05-01T00:04:47.167Z,7.71
2023-05-01T00:09:49.008Z,7.61
2023-05-01T00:14:50.801Z,7.56
2023-05-01T00:19:55.424Z,7.50
2023-05-01T00:24:57.333Z,7.43
2023-05-01T00:30:01.803Z,7.38
2023-05-01T00:35:05.801Z,7.33
2023-05-01T00:40:09.726Z,7.27
2023-05-01T00:45:11.807Z,7.25
2023-05-01T00:50:16.000Z,7.19
2023-05-01T00:55:20.309Z,7.13
2023-05-01T01:00:25.076Z,7.08
2023-05-01T01:05:41.118Z,7.00
2023-05-01T01:10:59.516Z,6.96
2023-05-01T01:16:10.343Z,6.90
2023-05-01T01:21:22.791Z,6.86
2023-05-01T01:26:49.661Z,6.82
2023-05-01T01:31:59.502Z,6.76
2023-05-01T01:37:10.646Z,6.70
2023-05-01T01:42:18.886Z,6.64
2023-05-01T01:47:28.320Z,6.59
2023-05-01T01:52:37.860Z,6.53
2023-05-01T01:57:43.157Z,6.48
2023-05-01T02:02:45.672Z,6.46
2023-05-01T02:07:50.860Z,6.39
2023-05-01T02:12:56.393Z,6.33
2023-05-01T02:18:00.903Z,6.29
2023-05-01T02:23:05.806Z,6.28
2023-05-01T02:28:10.721Z,6.23
2023-05-01T02:33:12.944Z,6.21
2023-05-01T02:38:15.585Z,6.19
2023-05-01T02:43:22.576Z,6.17
2023-05-01T02:48:29.705Z,6.15
2023-05-01T02:53:34.653Z,6.12
2023-05-01T02:58:44.885Z,6.08
2023-05-01T03:03:46.994Z,6.05
2023-05-01T03:08:48.851Z,6.05
2023-05-01T03:13:55.377Z,6.05
2023-05-01T03:18:57.096Z,6.06
2023-05-01T03:24:01.152Z,6.05
2023-05-01T03:29:08.624Z,6.00
2023-05-01T03:34:12.844Z,5.95
2023-05-01T03:39:19.523Z,5.91
2023-05-01T03:44:42.212Z,5.83
2023-05-01T03:49:44.216Z,5.80
2023-05-01T03:54:46.550Z,5.74
2023-05-01T04:00:15.029Z,5.72
2023-05-01T04:05:21.575Z,5.67
2023-05-01T04:10:28.194Z,5.86
2023-05-01T04:15:37.123Z,5.67
2023-05-01T04:20:40.305Z,5.59
2023-05-01T04:25:42.208Z,5.62
2023-05-01T04:30:50.030Z,5.61
2023-05-01T04:35:54.226Z,5.59
2023-05-01T04:40:56.318Z,5.58
2023-05-01T04:46:00.628Z,5.68
2023-05-01T04:51:05.430Z,5.80
2023-05-01T04:56:09.025Z,5.87
2023-05-01T05:01:12.870Z,6.02
2023-05-01T05:06:14.764Z,6.23
2023-05-01T05:11:16.541Z,6.46
2023-05-01T05:16:34.677Z,6.68
2023-05-01T05:21:39.120Z,6.88
2023-05-01T05:26:42.936Z,7.04
2023-05-01T05:31:47.376Z,7.22
2023-05-01T05:36:49.888Z,7.41
2023-05-01T05:41:57.155Z,7.58
2023-05-01T05:47:01.077Z,7.70
2023-05-01T05:52:08.585Z,7.86
2023-05-01T05:57:14.330Z,8.00
2023-05-01T06:02:22.665Z,8.15
2023-05-01T06:07:28.308Z,8.31
2023-05-01T06:12:30.652Z,8.47
2023-05-01T06:17:40.800Z,8.59
2023-05-01T06:22:42.612Z,8.68
2023-05-01T06:27:54.126Z,8.70
2023-05-01T06:32:58.667Z,8.78
2023-05-01T06:38:00.476Z,8.89
2023-05-01T06:43:03.333Z,8.97
2023-05-01T06:48:07.927Z,9.11
2023-05-01T06:53:12.078Z,9.36
2023-05-01T06:58:24.136Z,9.47
2023-05-01T07:03:29.324Z,9.55
2023-05-01T07:08:31.653Z,9.71
2023-05-01T07:13:33.772Z,9.84
2023-05-01T07:18:35.928Z,10.07
2023-05-01T07:23:38.650Z,10.38
2023-05-01T07:28:41.928Z,10.49
2023-05-01T07:33:44.260Z,10.63
2023-05-01T07:38:46.089Z,10.88
2023-05-01T07:43:50.016Z,11.07
2023-05-01T07:48:54.197Z,11.24
2023-05-01T07:53:59.123Z,11.51
2023-05-01T07:59:03.036Z,11.65
2023-05-01T08:04:05.183Z,11.86
2023-05-01T08:09:07.394Z,11.98
2023-05-01T08:14:09.373Z,12.09
2023-05-01T08:19:14.202Z,12.27
2023-05-01T08:24:18.336Z,12.49
2023-05-01T08:29:25.758Z,12.66
2023-05-01T08:34:27.460Z,12.72
2023-05-01T08:39:29.307Z,12.86
2023-05-01T08:44:38.225Z,12.96
2023-05-01T08:49:42.970Z,13.07
2023-05-01T08:54:46.961Z,13.34
2023-05-01T08:59:53.505Z,13.75
2023-05-01T09:05:00.058Z,13.88
2023-05-01T09:10:01.938Z,14.16
2023-05-01T09:15:07.720Z,14.52
2023-05-01T09:20:10.544Z,14.97
2023-05-01T09:25:14.938Z,15.12
2023-05-01T09:30:32.723Z,15.33
2023-05-01T09:35:57.156Z,15.70
2023-05-01T09:41:04.379Z,16.14
2023-05-01T09:46:10.825Z,16.47
2023-05-01T09:51:29.154Z,16.59
2023-05-01T09:56:34.278Z,16.73
2023-05-01T10:01:42.903Z,16.98
2023-05-01T10:06:49.611Z,16.99
2023-05-01T10:11:53.694Z,17.04
2023-05-01T10:16:58.053Z,16.82
2023-05-01T10:22:02.465Z,16.71
2023-05-01T10:27:06.771Z,16.72
2023-05-01T10:32:11.312Z,16.88
2023-05-01T10:37:26.299Z,16.98
2023-05-01T10:42:28.975Z,17.42
2023-05-01T10:47:34.860Z,17.75
2023-05-01T10:53:14.737Z,17.95
2023-05-01T10:58:39.181Z,17.94
2023-05-01T11:03:43.001Z,18.23
2023-05-01T11:08:46.426Z,18.43
2023-05-01T11:13:57.521Z,18.63
2023-05-01T11:19:06.286Z,18.67
2023-05-01T11:24:13.176Z,18.96
2023-05-01T11:29:17.396Z,19.46
2023-05-01T11:34:19.168Z,19.37
2023-05-01T11:39:22.133Z,19.88
2023-05-01T11:44:23.906Z,20.22
2023-05-01T11:49:28.734Z,20.09
2023-05-01T11:54:47.531Z,20.62
2023-05-01T11:59:51.296Z,21.14
2023-05-01T12:04:54.021Z,22.86
2023-05-01T12:09:58.514Z,23.29
2023-05-01T12:15:03.648Z,23.43
2023-05-01T12:20:06.156Z,22.56
2023-05-01T12:25:08.428Z,21.92
2023-05-01T12:30:15.041Z,20.98
2023-05-01T12:35:16.973Z,20.99
2023-05-01T12:40:23.832Z,21.07
2023-05-01T12:45:25.718Z,22.29
2023-05-01T12:50:27.891Z,21.16
2023-05-01T12:55:29.751Z,20.36
2023-05-01T13:00:42.483Z,20.15
2023-05-01T13:05:55.620Z,20.99
2023-05-01T13:11:01.311Z,23.45
2023-05-01T13:16:09.136Z,24.94
2023-05-01T13:21:16.344Z,25.40
2023-05-01T13:26:18.316Z,26.03
2023-05-01T13:31:22.355Z,27.15
2023-05-01T13:36:26.423Z,28.26
2023-05-01T13:41:35.187Z,29.21
2023-05-01T13:46:37.006Z,29.61
2023-05-01T13:51:42.984Z,31.36
2023-05-01T13:56:44.734Z,32.27
2023-05-01T14:01:47.516Z,33.50
2023-05-01T14:06:51.662Z,33.21
2023-05-01T14:11:53.979Z,32.40
2023-05-01T14:16:58.122Z,30.83
2023-05-01T14:22:02.237Z,31.96
2023-05-01T14:27:12.432Z,33.56
2023-05-01T14:32:16.153Z,33.28
2023-05-01T14:37:18.490Z,34.38
2023-05-01T14:42:20.171Z,34.85
2023-05-01T14:47:22.307Z,34.10
2023-05-01T14:52:29.560Z,34.63
2023-05-01T14:57:31.291Z,35.20
2023-05-01T15:02:35.600Z,35.09
2023-05-01T15:07:38.704Z,36.07
2023-05-01T15:12:48.039Z,34.51
2023-05-01T15:17:49.786Z,33.65
2023-05-01T15:22:51.508Z,34.53
2023-05-01T15:27:55.437Z,34.97
2023-05-01T15:32:57.435Z,36.18
2023-05-01T15:38:04.271Z,36.85
2023-05-01T15:43:06.643Z,37.06
2023-05-01T15:48:08.426Z,36.17
2023-05-01T15:53:10.434Z,37.06
2023-05-01T15:58:12.156Z,38.38
2023-05-01T16:03:14.064Z,38.48
2023-05-01T16:08:17.471Z,38.83
2023-05-01T16:13:19.255Z,39.37
2023-05-01T16:18:24.998Z,36.31
2023-05-01T16:23:27.217Z,35.32
2023-05-01T16:28:31.198Z,31.15
2023-05-01T16:33:33.797Z,29.63
2023-05-01T16:38:36.748Z,30.10
2023-05-01T16:43:38.452Z,28.72
2023-05-01T16:48:42.435Z,27.38
2023-05-01T16:53:44.126Z,25.85
2023-05-01T16:58:46.331Z,25.21
2023-05-01T17:03:50.406Z,25.14
2023-05-01T17:08:54.757Z,24.54
2023-05-01T17:13:58.878Z,24.32
2023-05-01T17:19:01.526Z,24.03
2023-05-01T17:24:05.558Z,23.47
2023-05-01T17:29:07.233Z,23.09
2023-05-01T17:34:11.237Z,22.40
2023-05-01T17:39:15.365Z,22.26
2023-05-01T17:44:17.485Z,22.06
2023-05-01T17:49:19.490Z,21.58
2023-05-01T17:54:23.640Z,21.07
2023-05-01T17:59:30.528Z,20.58
2023-05-01T18:04:36.142Z,20.13
2023-05-01T18:09:38.499Z,19.64
2023-05-01T18:14:40.497Z,19.54
2023-05-01T18:19:42.168Z,19.26
2023-05-01T18:24:43.904Z,18.81
2023-05-01T18:29:45.825Z,18.46
2023-05-01T18:34:52.313Z,18.26
2023-05-01T18:39:54.136Z,17.91
2023-05-01T18:44:57.845Z,17.65
2023-05-01T18:50:02.214Z,17.37
2023-05-01T18:55:11.316Z,17.08
2023-05-01T19:00:15.139Z,16.89
2023-05-01T19:05:17.588Z,16.75
2023-05-01T19:10:19.383Z,16.56
2023-05-01T19:15:23.308Z,16.23
2023-05-01T19:20:29.533Z,16.02
2023-05-01T19:25:34.257Z,15.92
2023-05-01T19:30:36.133Z,15.63
2023-05-01T19:35:42.617Z,15.58
2023-05-01T19:40:51.650Z,15.42
2023-05-01T19:45:56.649Z,15.38
2023-05-01T19:50:58.373Z,15.43
2023-05-01T19:56:00.737Z,15.12
2023-05-01T20:01:05.012Z,14.86
2023-05-01T20:06:09.502Z,14.92
2023-05-01T20:11:11.333Z,14.75
2023-05-01T20:16:13.149Z,14.57
2023-05-01T20:21:14.873Z,14.47
2023-05-01T20:26:17.656Z,15.15
2023-05-01T20:31:21.613Z,14.55
2023-05-01T20:36:25.275Z,14.16
2023-05-01T20:41:29.178Z,14.11
2023-05-01T20:46:33.282Z,13.96
2023-05-01T20:51:38.397Z,13.81
2023-05-01T20:56:40.099Z,13.71
2023-05-01T21:01:44.155Z,13.71
2023-05-01T21:06:48.593Z,13.50
2023-05-01T21:11:50.546Z,13.46
2023-05-01T21:16:54.941Z,13.32
2023-05-01T21:21:59.714Z,13.15
2023-05-01T21:27:03.842Z,12.88
2023-05-01T21:32:06.217Z,12.65
2023-05-01T21:37:11.068Z,12.40
2023-05-01T21:42:18.179Z,12.29
2023-05-01T21:47:19.868Z,12.43
2023-05-01T21:52:24.068Z,12.44
2023-05-01T21:57:31.943Z,12.44
2023-05-01T22:02:40.427Z,12.58
2023-05-01T22:07:45.158Z,12.61
2023-05-01T22:12:48.813Z,12.54
2023-05-01T22:17:56.610Z,12.32
2023-05-01T22:23:00.972Z,12.41
2023-05-01T22:28:04.385Z,12.44
2023-05-01T22:33:10.804Z,12.43
2023-05-01T22:38:14.965Z,12.54
2023-05-01T22:43:16.702Z,12.49
2023-05-01T22:48:20.908Z,12.47
2023-05-01T22:53:22.590Z,12.40
2023-05-01T22:58:26.595Z,12.31
2023-05-01T23:03:29.067Z,12.13
2023-05-01T23:08:33.628Z,12.11
2023-05-01T23:13:35.325Z,12.04
2023-05-01T23:18:42.058Z,11.97
2023-05-01T23:23:46.805Z,12.01
2023-05-01T23:28:50.813Z,12.05
2023-05-01T23:33:53.316Z,11.93
2023-05-01T23:38:58.056Z,11.94
2023-05-01T23:44:02.494Z,11.91
2023-05-01T23:49:04.465Z,11.95
2023-05-01T23:54:11.701Z,11.76
2023-05-01T23:59:14.816Z,11.61
